Terminal Aerodrome Forecast
Issued by NWS

Home | Current Version | Previous Version | Text Only | Print | Product List | Glossary On
Versions: 1 2 3 4 5 6 7 8 9 10 11 12 13 14 15 16 17 18 19 20 21 22 23 24 25 26 27 28 29 30 31
000
FTUS46 KLOX 301311 AAB
TAFSBP
TAF AMD
KSBP 301311Z 3013/3112 VRB03KT P6SM OVC007
     FM301700 31010KT P6SM SCT015
     FM302000 31015G25KT P6SM BKN200
     FM310400 31008KT P6SM SCT200
     FM310800 VRB03KT P6SM OVC007=

USA.gov is the U.S. government's official web portal to all federal, state and local government web resources and services.